Lake Park, FL (33403)

6:45 PM EST on March 04, 2015 (GMT -0500)
Rybovich Boat Company | Change Station
CLOSE
Current Station
Personal Weather Station
Location: West Palm Beach, FL
Elevation: 10 ft
Nearby Weather Stations

Elev 10 ft 26.75 °N, 80.05 °W | Updated 14 seconds ago

Mostly Cloudy
Mostly Cloudy
75.2 °F
Feels Like 76 °F
N
6.1
Wind Variable Wind from SE
Gusts 12.0 mph

Today
High -- | Low -- °F
--% Chance of Precip.
Yesterday
High -- | Low -- °F
Precip. -- in
6:41 AM 6:23 PM
Waxing Gibbous, 99% visible
Pressure 30.10 in
Visibility 10.0 miles
Clouds Few 2000 ft
Scattered Clouds 2800 ft
Heat Index 76 °F
Dew Point 69 °F
Humidity 82%
Rainfall 0.00 in
Snow Depth Not available.
UV 0 out of 12
Pollen 11.10 out of 12
Air Quality Not available.
Flu Activity Not available.
METAR KPBI 042253Z 14009KT 10SM FEW020 SCT028 25/19 A3010 RMK AO2 SLP193 T02500194

More Conditions Fewer Conditions

Pressure 30.10 in
Visibility 10.0 miles
Clouds Few 2000 ft
Scattered Clouds 2800 ft
Heat Index 76 °F
Dew Point 69 °F
Humidity 82%
Rainfall 0.00 in
Snow Depth Not available.
UV 0 out of 12
Pollen 11.10 out of 12
Air Quality Not available.
Flu Activity Not available.
METAR KPBI 042253Z 14009KT 10SM FEW020 SCT028 25/19 A3010 RMK AO2 SLP193 T02500194

More Conditions Fewer Conditions

10-Day Weather Forecast

Almanac

Astronomy

Mar. 04, 2015 Rise Set
Actual Time
Civil Twilight
Nautical Twilight
Astronomical Twilight
Moon
Length of Visible Light
Length of Day
Tomorrow will be .
, % of the Moon is Illuminated

Today's Extremes

State Highs State Lows

Community

WunderPhotos

Upload Photos

1,802,605 photos uploaded!

WunderBlogs® & News

Nearby

Air Quality

  Air Quality AQ Index Pollutant
Not available.

Snow Depth

Station Depth Elevation

Earthquake Activity

City Distance Mag. Time & Date
Minimum magnitude displayed is 2.5.

Coastal Water Temperatures

Place Temperature

Nearby Weather Stations